Time;durP1;ratioP1;P1;durP2;ratioP2;P2;SDS_P1;SDS_P2;PMS_P1;PMS_P2;Temp;Humidity;BMP_temperature;BMP_pressure;BME280_temperature;BME280_humidity;BME280_pressure;Samples;Min_cycle;Max_cycle;Signal;HPM_P1;HPM_P2
2022/09/15 00:00:51;;;;;;;5.30;2.75;;;;;;;22.01;48.55;94728.25;5000961;28;20404;-60
2022/09/15 00:03:17;;;;;;;4.30;2.55;;;;;;;22.66;48.68;94791.50;4981678;28;20084;-60
2022/09/15 00:05:43;;;;;;;4.53;2.50;;;;;;;22.40;48.43;94747.72;4988374;28;20042;-61
2022/09/15 00:08:08;;;;;;;5.18;2.53;;;;;;;22.70;47.96;94808.31;4982210;28;20050;-61
2022/09/15 00:10:34;;;;;;;4.50;2.80;;;;;;;22.47;49.07;94790.72;5000953;28;20462;-61
2022/09/15 00:12:59;;;;;;;4.78;2.65;;;;;;;22.37;49.01;94780.66;5002104;28;20517;-60
2022/09/15 00:15:25;;;;;;;4.50;2.50;;;;;;;22.23;48.52;94749.88;4996644;28;20141;-61
2022/09/15 00:17:51;;;;;;;5.20;2.83;;;;;;;22.62;48.42;94785.63;4993287;28;20065;-60
2022/09/15 00:20:18;;;;;;;5.47;3.10;;;;;;;22.34;48.13;94747.03;4990253;28;20038;-61
2022/09/15 00:22:43;;;;;;;2.80;2.25;;;;;;;22.71;47.91;94804.34;4992521;28;20044;-61
2022/09/15 00:25:09;;;;;;;4.25;2.72;;;;;;;22.10;48.77;94755.13;5002107;28;20113;-60
2022/09/15 00:27:34;;;;;;;4.32;2.33;;;;;;;22.44;48.56;94780.84;5002287;28;20619;-61
2022/09/15 00:30:00;;;;;;;5.22;2.97;;;;;;;21.92;48.61;94697.22;5002499;28;20360;-61
2022/09/15 00:32:25;;;;;;;5.45;2.65;;;;;;;22.44;49.25;94791.72;5001197;28;20045;-61
2022/09/15 00:34:52;;;;;;;5.88;2.85;;;;;;;22.20;48.79;94761.75;4984476;28;20045;-60
2022/09/15 00:37:17;;;;;;;6.20;2.75;;;;;;;22.08;49.14;94738.59;5001916;28;20088;-60
2022/09/15 00:39:43;;;;;;;5.63;2.85;;;;;;;22.02;48.84;94718.16;4989203;28;20038;-60
2022/09/15 00:42:16;;;;;;;4.30;2.45;;;;;;;22.27;48.90;94774.81;4982862;28;20085;-60
2022/09/15 00:44:47;;;;;;;3.78;2.70;;;;;;;22.14;49.28;94777.38;5001813;28;20078;-60
2022/09/15 00:47:12;;;;;;;4.30;2.70;;;;;;;22.14;48.57;94742.00;5001473;28;20124;-60
2022/09/15 00:49:38;;;;;;;4.75;2.45;;;;;;;21.81;48.51;94691.84;4991033;28;20053;-60
2022/09/15 00:52:11;;;;;;;3.70;2.53;;;;;;;22.18;48.87;94774.38;5001530;28;20509;-59
2022/09/15 00:55:07;;;;;;;5.10;2.63;;;;;;;22.39;49.38;94794.50;4976335;28;20089;-60
2022/09/15 00:57:38;;;;;;;3.03;2.33;;;;;;;22.77;48.24;94807.75;4999848;28;20046;-60
2022/09/15 01:00:08;;;;;;;4.25;3.13;;;;;;;22.46;49.09;94794.69;4984219;28;20025;-60
2022/09/15 01:02:34;;;;;;;4.82;3.20;;;;;;;21.60;49.09;94666.34;4999218;28;20087;-60
2022/09/15 01:05:00;;;;;;;5.10;2.92;;;;;;;21.97;49.29;94752.28;4972245;28;20138;-60
2022/09/15 01:07:34;;;;;;;5.22;2.50;;;;;;;21.72;49.68;94724.78;4984154;28;20095;-61
2022/09/15 01:10:06;;;;;;;3.88;2.33;;;;;;;21.78;49.51;94744.50;5002007;28;20026;-60
2022/09/15 01:12:31;;;;;;;4.38;2.30;;;;;;;22.23;49.69;94793.41;4984090;28;20029;-60
2022/09/15 01:14:59;;;;;;;5.97;2.50;;;;;;;21.71;49.76;94731.47;4982066;28;20050;-60
2022/09/15 01:17:43;;;;;;;3.90;2.22;;;;;;;22.13;49.87;94789.47;4989736;28;20419;-60
2022/09/15 01:20:23;;;;;;;5.47;2.50;;;;;;;22.18;49.83;94791.44;5001436;28;20116;-61
2022/09/15 01:23:19;;;;;;;3.70;2.40;;;;;;;21.45;49.89;94687.66;5001277;28;20034;-61
2022/09/15 01:26:32;;;;;;;5.65;2.60;;;;;;;22.16;49.74;94782.28;4958529;28;20029;-61
2022/09/15 01:29:19;;;;;;;4.57;2.63;;;;;;;22.18;50.03;94788.72;4905528;29;20036;-61
2022/09/15 01:34:52;;;;;;;5.40;2.70;;;;;;;22.15;49.46;94787.00;5000879;28;20147;-60
2022/09/15 01:37:21;;;;;;;3.22;2.20;;;;;;;22.21;49.31;94782.28;4984095;28;20060;-61
2022/09/15 01:39:47;;;;;;;4.00;2.38;;;;;;;21.96;49.16;94750.81;4968560;28;20032;-61
2022/09/15 01:42:13;;;;;;;6.28;2.85;;;;;;;21.78;49.40;94736.34;4966657;28;20038;-60
2022/09/15 01:44:46;;;;;;;4.50;2.70;;;;;;;21.91;48.82;94744.66;4983628;28;20053;-61
2022/09/15 01:47:12;;;;;;;4.65;2.60;;;;;;;22.38;48.56;94790.31;4982619;28;20593;-60
2022/09/15 01:49:49;;;;;;;3.88;2.60;;;;;;;21.96;49.65;94780.72;4983964;28;20070;-60
2022/09/15 01:52:16;;;;;;;4.20;2.75;;;;;;;21.96;49.28;94780.72;4967239;28;20061;-61
2022/09/15 01:54:44;;;;;;;4.53;2.75;;;;;;;21.93;49.90;94781.72;4984013;28;20108;-61
2022/09/15 01:57:10;;;;;;;3.97;2.67;;;;;;;21.82;49.44;94743.00;4967553;28;20055;-60
2022/09/15 01:59:35;;;;;;;4.15;2.72;;;;;;;19.76;49.12;94463.38;4983402;28;20439;-60
2022/09/15 02:02:04;;;;;;;5.15;2.70;;;;;;;21.34;49.34;94671.44;5003180;28;20045;-61
2022/09/15 02:04:40;;;;;;;4.68;2.53;;;;;;;22.04;49.52;94773.47;4985266;28;20046;-61
2022/09/15 02:07:10;;;;;;;3.55;2.53;;;;;;;21.51;49.67;94708.16;4984617;28;20013;-60
2022/09/15 02:09:39;;;;;;;6.63;2.60;;;;;;;21.36;49.61;94682.53;4984052;28;20029;-59
2022/09/15 02:12:18;;;;;;;4.22;2.60;;;;;;;21.92;49.04;94753.06;4983288;28;20084;-62
2022/09/15 02:14:57;;;;;;;4.13;2.78;;;;;;;22.25;48.91;94771.13;4983163;28;20054;-62
2022/09/15 02:17:23;;;;;;;4.50;2.88;;;;;;;22.19;48.82;94781.28;4989918;28;20045;-60
2022/09/15 02:19:56;;;;;;;3.97;2.90;;;;;;;22.24;48.84;94778.56;4987296;28;20534;-62
2022/09/15 02:22:27;;;;;;;4.22;2.60;;;;;;;22.30;48.75;94790.13;5004562;28;20051;-60
2022/09/15 02:25:11;;;;;;;5.60;2.35;;;;;;;22.04;49.54;94770.75;5004620;28;20041;-61
2022/09/15 02:27:40;;;;;;;5.82;2.83;;;;;;;21.44;49.46;94686.19;4966365;28;20103;-61
2022/09/15 02:30:08;;;;;;;4.73;2.80;;;;;;;21.83;49.71;94776.38;4970883;28;20026;-61
2022/09/15 02:32:34;;;;;;;5.20;2.42;;;;;;;22.08;48.97;94790.25;4987008;28;20034;-62
2022/09/15 02:35:02;;;;;;;6.28;3.15;;;;;;;21.54;48.53;94673.81;5004433;28;20046;-61
2022/09/15 02:37:28;;;;;;;6.50;2.83;;;;;;;21.79;48.89;94737.84;4968067;28;20069;-60
2022/09/15 02:39:54;;;;;;;5.93;2.88;;;;;;;21.63;49.21;94719.69;4981711;28;20030;-60
2022/09/15 02:42:24;;;;;;;3.85;2.83;;;;;;;21.83;49.41;94765.50;4967354;28;20015;-60
2022/09/15 02:44:50;;;;;;;3.42;2.42;;;;;;;21.66;49.47;94732.25;4985305;28;20042;-61
2022/09/15 02:47:15;;;;;;;4.25;2.70;;;;;;;21.64;49.65;94737.44;5000010;28;20531;-61
2022/09/15 02:49:40;;;;;;;4.50;2.63;;;;;;;21.02;49.77;94654.09;4995913;28;20049;-61
2022/09/15 02:52:06;;;;;;;5.15;2.22;;;;;;;21.80;49.61;94771.94;5004227;28;20022;-61
2022/09/15 02:54:32;;;;;;;4.80;2.72;;;;;;;21.40;49.18;94712.88;5004841;28;20056;-60
2022/09/15 02:56:59;;;;;;;4.28;2.90;;;;;;;21.92;49.52;94772.06;5003917;28;20034;-61
2022/09/15 02:59:24;;;;;;;5.22;2.35;;;;;;;21.13;49.65;94683.91;5004094;28;20041;-59
2022/09/15 03:01:51;;;;;;;5.22;2.58;;;;;;;21.65;49.21;94734.22;5003711;28;20034;-60
2022/09/15 03:04:16;;;;;;;5.72;2.50;;;;;;;21.77;49.18;94762.81;4995400;28;20431;-61
2022/09/15 03:06:42;;;;;;;3.97;3.00;;;;;;;21.63;49.44;94752.28;5004571;28;20025;-60
2022/09/15 03:09:07;;;;;;;4.63;2.55;;;;;;;21.60;49.42;94726.13;5003811;28;20974;-60
2022/09/15 03:11:33;;;;;;;5.07;2.70;;;;;;;21.54;49.57;94722.72;4985795;28;20045;-60
2022/09/15 03:14:01;;;;;;;7.80;2.88;;;;;;;21.46;49.80;94762.50;5004146;28;20034;-60
2022/09/15 03:16:27;;;;;;;4.93;2.70;;;;;;;21.33;49.63;94710.72;4971967;28;20054;-61
2022/09/15 03:18:54;;;;;;;6.55;3.00;;;;;;;21.51;50.15;94772.63;5003722;28;20061;-60
2022/09/15 03:21:19;;;;;;;5.35;3.03;;;;;;;21.51;50.67;94783.47;5004179;28;20014;-60
2022/09/15 03:23:45;;;;;;;4.70;3.03;;;;;;;21.43;49.66;94744.47;4990428;28;20060;-60
2022/09/15 03:26:10;;;;;;;6.72;2.95;;;;;;;21.48;50.03;94773.63;5003227;28;20038;-61
2022/09/15 03:28:37;;;;;;;6.97;2.67;;;;;;;21.18;50.70;94761.88;5002655;28;20058;-60
2022/09/15 03:31:02;;;;;;;5.35;2.78;;;;;;;21.52;50.73;94806.69;4985176;28;20057;-60
2022/09/15 03:33:28;;;;;;;5.50;2.90;;;;;;;21.44;50.67;94795.56;4986104;28;20468;-61
2022/09/15 03:35:54;;;;;;;6.13;3.10;;;;;;;21.43;50.05;94787.91;5003172;28;20053;-60
2022/09/15 03:38:20;;;;;;;4.30;2.80;;;;;;;21.64;49.44;94786.34;5003612;28;20029;-60
2022/09/15 03:40:56;;;;;;;5.45;2.80;;;;;;;21.31;49.45;94748.47;4981176;28;20043;-60
2022/09/15 03:43:22;;;;;;;4.93;2.47;;;;;;;21.56;49.77;94790.84;4983356;28;20081;-60
2022/09/15 03:45:47;;;;;;;5.85;3.08;;;;;;;21.60;49.90;94804.94;4977833;28;20034;-60
2022/09/15 03:48:13;;;;;;;5.28;3.13;;;;;;;21.20;49.79;94731.50;4979837;28;20070;-62
2022/09/15 03:50:38;;;;;;;5.78;3.10;;;;;;;21.11;49.82;94740.69;4999819;28;20491;-60
2022/09/15 03:53:04;;;;;;;5.65;2.83;;;;;;;21.61;49.50;94792.78;5003051;28;20396;-60
2022/09/15 03:55:29;;;;;;;4.18;2.80;;;;;;;20.21;49.00;94606.34;5003462;28;20229;-61
2022/09/15 03:57:54;;;;;;;7.10;2.65;;;;;;;21.12;49.49;94709.59;4996797;28;20026;-60
2022/09/15 04:00:20;;;;;;;5.25;3.08;;;;;;;21.23;50.35;94774.69;4993665;28;20026;-61
2022/09/15 04:02:46;;;;;;;5.30;2.95;;;;;;;21.31;49.93;94764.78;5000184;28;20648;-61
2022/09/15 04:05:12;;;;;;;5.85;3.50;;;;;;;20.83;50.10;94697.88;5003772;28;20078;-60
2022/09/15 04:07:38;;;;;;;5.25;2.70;;;;;;;21.11;49.55;94708.09;5002565;28;20034;-61
2022/09/15 04:10:05;;;;;;;6.72;2.95;;;;;;;21.16;49.46;94731.75;5000221;28;20105;-61
2022/09/15 04:12:31;;;;;;;4.43;2.92;;;;;;;21.56;49.67;94777.28;5002899;28;20018;-60
2022/09/15 04:14:57;;;;;;;4.57;2.88;;;;;;;21.66;49.70;94800.19;5000746;28;20460;-61
2022/09/15 04:17:22;;;;;;;5.03;2.78;;;;;;;21.06;50.01;94738.75;4990775;28;20058;-60
2022/09/15 04:19:48;;;;;;;6.60;3.03;;;;;;;21.19;50.25;94752.47;4990745;28;20388;-60
2022/09/15 04:22:13;;;;;;;6.55;3.03;;;;;;;21.50;50.63;94782.72;5002428;28;20045;-60
2022/09/15 04:24:39;;;;;;;6.88;3.20;;;;;;;21.58;50.07;94791.09;5003686;28;20503;-61
2022/09/15 04:27:04;;;;;;;4.03;2.90;;;;;;;20.74;50.43;94690.03;5002188;28;20518;-60
2022/09/15 04:29:30;;;;;;;6.03;2.65;;;;;;;21.54;50.21;94788.63;5003676;28;20046;-60
2022/09/15 04:31:55;;;;;;;4.88;2.60;;;;;;;21.48;50.41;94779.06;4970004;28;20026;-60
2022/09/15 04:34:20;;;;;;;5.22;3.00;;;;;;;21.36;50.37;94783.03;5003088;28;20123;-61
2022/09/15 04:36:46;;;;;;;6.20;3.03;;;;;;;21.39;50.10;94767.69;5002671;28;20034;-60
2022/09/15 04:39:12;;;;;;;5.63;3.08;;;;;;;20.85;50.56;94717.09;4988014;28;20423;-60
2022/09/15 04:41:38;;;;;;;5.72;2.97;;;;;;;20.86;49.92;94688.72;4977343;28;20039;-61
2022/09/15 04:44:03;;;;;;;6.57;2.75;;;;;;;21.31;50.37;94781.06;5000238;28;20100;-60
2022/09/15 04:46:29;;;;;;;7.35;3.10;;;;;;;21.38;49.99;94796.84;5001910;28;20046;-61
2022/09/15 04:48:55;;;;;;;6.55;2.95;;;;;;;20.93;50.44;94707.22;4995098;28;20034;-61
2022/09/15 04:51:21;;;;;;;5.93;3.03;;;;;;;21.19;50.49;94752.47;5002850;28;20298;-61
2022/09/15 04:53:47;;;;;;;6.82;3.45;;;;;;;21.37;50.88;94789.94;5002911;28;20065;-60
2022/09/15 04:56:14;;;;;;;6.28;2.85;;;;;;;21.42;50.80;94791.13;5001396;28;20038;-60
2022/09/15 04:58:41;;;;;;;6.78;3.60;;;;;;;20.74;50.67;94690.75;5002354;28;20388;-61
2022/09/15 05:01:12;;;;;;;5.03;3.30;;;;;;;20.95;50.94;94723.72;4984486;28;20282;-60
2022/09/15 05:03:37;;;;;;;8.43;3.20;;;;;;;20.75;50.83;94691.50;4983244;28;20260;-60
2022/09/15 05:06:05;;;;;;;8.30;3.38;;;;;;;21.03;51.01;94722.69;4987124;28;20136;-60
2022/09/15 05:08:30;;;;;;;5.15;3.13;;;;;;;21.41;50.75;94774.13;4988529;28;20046;-62
2022/09/15 05:11:04;;;;;;;10.10;3.78;;;;;;;21.18;50.47;94702.16;4992869;28;20105;-63
2022/09/15 05:13:29;;;;;;;6.63;3.03;;;;;;;21.94;49.78;94799.53;4997343;28;20034;-62
2022/09/15 05:15:55;;;;;;;7.78;3.05;;;;;;;21.55;49.74;94710.59;4992086;28;20046;-62
2022/09/15 05:18:20;;;;;;;6.15;3.15;;;;;;;22.20;49.19;94782.78;4984950;28;20030;-62
2022/09/15 05:20:46;;;;;;;5.97;3.40;;;;;;;22.21;49.62;94785.00;4983875;28;20574;-65
2022/09/15 05:23:12;;;;;;;6.25;3.45;;;;;;;21.79;49.15;94700.50;4985489;28;20046;-63
2022/09/15 05:25:37;;;;;;;8.20;3.92;;;;;;;22.08;49.26;94722.28;4980211;28;20090;-62
2022/09/15 05:28:04;;;;;;;6.35;2.90;;;;;;;21.84;49.39;94718.78;4979028;28;20038;-63
2022/09/15 05:30:29;;;;;;;5.55;3.20;;;;;;;22.50;49.04;94763.22;4981515;28;20022;-64
2022/09/15 05:32:55;;;;;;;7.30;3.35;;;;;;;21.74;49.06;94644.22;4979438;28;20074;-66
2022/09/15 05:35:22;;;;;;;7.03;3.75;;;;;;;22.36;49.36;94769.06;4979840;28;20034;-64
2022/09/15 05:37:48;;;;;;;6.57;3.05;;;;;;;21.98;49.79;94732.00;4979625;28;20116;-63
2022/09/15 05:40:14;;;;;;;7.22;3.60;;;;;;;22.70;49.22;94764.75;4980111;28;20129;-63
2022/09/15 05:42:39;;;;;;;9.55;3.40;;;;;;;22.67;48.30;94754.91;4981378;28;20202;-64
2022/09/15 05:45:05;;;;;;;9.30;3.38;;;;;;;22.61;49.16;94751.50;4991121;28;20030;-65
2022/09/15 05:47:31;;;;;;;7.65;3.70;;;;;;;22.53;48.56;94734.25;4982775;28;20030;-64
2022/09/15 05:50:02;;;;;;;6.22;3.60;;;;;;;22.69;48.80;94757.84;4983972;28;20096;-60
2022/09/15 05:52:27;;;;;;;8.48;4.00;;;;;;;22.71;48.25;94711.81;4981282;28;20037;-61
2022/09/15 05:54:53;;;;;;;8.82;3.75;;;;;;;22.58;47.79;94704.25;4981288;28;20390;-61
2022/09/15 05:57:47;;;;;;;8.73;3.65;;;;;;;22.91;48.34;94742.75;4981090;28;20042;-62
2022/09/15 06:00:30;;;;;;;9.25;3.90;;;;;;;23.10;47.58;94738.09;4981353;28;20118;-62
2022/09/15 06:02:56;;;;;;;6.50;3.33;;;;;;;23.18;46.92;94749.88;4969200;28;20081;-62
2022/09/15 06:05:21;;;;;;;7.75;3.55;;;;;;;23.32;45.92;94705.13;4963729;28;20054;-66
2022/09/15 06:07:53;;;;;;;7.40;3.72;;;;;;;22.41;46.45;94629.50;4985752;28;20418;-64
2022/09/15 06:10:19;;;;;;;6.05;3.80;;;;;;;23.27;46.25;94714.09;4981312;28;20073;-61
2022/09/15 06:12:44;;;;;;;8.63;3.60;;;;;;;23.80;45.25;94737.69;4964209;28;20051;-64
2022/09/15 06:15:11;;;;;;;5.65;3.00;;;;;;;23.48;45.77;94739.56;4980338;28;20128;-65
2022/09/15 06:17:36;;;;;;;7.20;3.33;;;;;;;23.72;44.88;94714.97;4980098;28;20050;-63
2022/09/15 06:20:05;;;;;;;8.38;3.90;;;;;;;23.39;46.02;94715.41;4979640;28;20027;-61
2022/09/15 06:22:31;;;;;;;7.45;3.40;;;;;;;23.91;44.94;94728.03;4979607;28;21327;-61
2022/09/15 06:24:57;;;;;;;9.40;3.88;;;;;;;23.89;44.23;94703.28;4962354;28;20094;-64
2022/09/15 06:27:23;;;;;;;9.93;4.13;;;;;;;24.54;43.83;94749.84;4979005;28;20060;-63
2022/09/15 06:29:48;;;;;;;6.60;3.25;;;;;;;24.28;43.06;94683.56;4980908;28;20577;-63
2022/09/15 06:32:14;;;;;;;8.07;3.42;;;;;;;24.36;43.64;94717.91;4980369;28;20050;-61
2022/09/15 06:34:39;;;;;;;10.80;3.80;;;;;;;23.98;43.39;94711.09;4981184;28;20384;-62
2022/09/15 06:37:04;;;;;;;8.00;3.50;;;;;;;24.56;43.37;94763.75;4972053;28;20038;-63
2022/09/15 06:39:30;;;;;;;6.68;3.63;;;;;;;24.24;43.21;94678.41;4980303;28;20037;-61
2022/09/15 06:41:55;;;;;;;8.75;3.83;;;;;;;24.56;43.48;94720.06;4966307;28;20054;-62
2022/09/15 06:44:21;;;;;;;9.15;3.72;;;;;;;24.65;43.57;94747.69;4979965;28;20053;-61
2022/09/15 06:46:47;;;;;;;6.70;3.78;;;;;;;24.69;43.68;94750.09;4978267;28;20038;-62
2022/09/15 06:49:12;;;;;;;8.48;3.50;;;;;;;24.69;43.73;94750.09;4978645;28;20095;-63
2022/09/15 06:51:38;;;;;;;7.72;3.30;;;;;;;24.72;43.64;94749.03;4979145;28;20725;-65
2022/09/15 06:54:04;;;;;;;5.70;3.58;;;;;;;24.65;44.13;94755.13;4980348;28;20184;-62
2022/09/15 06:56:29;;;;;;;6.38;3.10;;;;;;;24.73;43.93;94766.91;4979465;28;20870;-63
2022/09/15 06:58:55;;;;;;;7.72;3.28;;;;;;;24.71;43.93;94758.47;4979766;28;20038;-62
2022/09/15 07:01:22;;;;;;;4.65;3.05;;;;;;;24.66;44.31;94772.97;4978976;28;20053;-62
2022/09/15 07:03:48;;;;;;;6.07;3.22;;;;;;;24.72;43.84;94766.16;4980451;28;20026;-65
2022/09/15 07:06:14;;;;;;;5.03;2.83;;;;;;;24.36;43.85;94715.19;4947998;28;20573;-62
2022/09/15 07:08:39;;;;;;;8.07;3.50;;;;;;;24.28;43.97;94695.22;4959625;28;20049;-61
2022/09/15 07:11:05;;;;;;;5.65;3.25;;;;;;;24.45;43.94;94731.91;4982740;28;20530;-64
2022/09/15 07:13:31;;;;;;;6.45;3.33;;;;;;;24.81;44.12;94795.06;4981567;28;20509;-62
2022/09/15 07:15:58;;;;;;;4.38;3.05;;;;;;;24.60;43.75;94775.06;4982570;28;20113;-68
2022/09/15 07:18:23;;;;;;;6.90;3.47;;;;;;;24.80;44.02;94799.03;4982566;28;20156;-63
2022/09/15 07:20:49;;;;;;;5.43;3.00;;;;;;;24.53;44.28;94753.88;4982561;28;20659;-62
2022/09/15 07:23:15;;;;;;;5.18;3.00;;;;;;;24.82;43.73;94791.06;4961277;28;20221;-63
2022/09/15 07:25:43;;;;;;;4.85;3.00;;;;;;;24.53;44.18;94764.78;4981347;28;20034;-64
2022/09/15 07:28:12;;;;;;;6.50;3.10;;;;;;;24.69;44.23;94799.25;4965340;28;20815;-62
2022/09/15 07:30:38;;;;;;;7.57;3.20;;;;;;;24.82;44.35;94812.94;4963213;28;20431;-64
2022/09/15 07:33:04;;;;;;;10.20;3.47;;;;;;;24.76;44.12;94804.09;4967086;28;20125;-60
2022/09/15 07:35:30;;;;;;;5.82;3.20;;;;;;;24.20;44.78;94743.47;4981902;28;20068;-65
2022/09/15 07:37:56;;;;;;;5.53;3.28;;;;;;;24.49;44.00;94813.50;4981901;28;20762;-64
2022/09/15 07:40:21;;;;;;;6.68;3.55;;;;;;;24.28;43.91;94755.25;4980971;28;20519;-60
2022/09/15 07:42:46;;;;;;;6.13;3.75;;;;;;;24.74;44.07;94812.06;4980179;28;20049;-64
2022/09/15 07:45:12;;;;;;;7.93;4.05;;;;;;;24.49;43.63;94769.81;4981716;28;20046;-66
2022/09/15 07:47:37;;;;;;;7.18;3.28;;;;;;;24.82;44.23;94808.91;4981397;28;20056;-64
2022/09/15 07:50:04;;;;;;;8.23;3.50;;;;;;;24.77;43.96;94794.63;4982398;28;20054;-64
2022/09/15 07:52:30;;;;;;;4.78;3.35;;;;;;;24.81;44.28;94797.78;4982050;28;20121;-64
2022/09/15 07:54:55;;;;;;;7.13;3.40;;;;;;;24.37;44.27;94741.22;4980629;28;20176;-63
2022/09/15 07:57:21;;;;;;;7.65;3.53;;;;;;;24.67;44.20;94785.38;4981174;28;20022;-64
2022/09/15 07:59:46;;;;;;;10.07;4.05;;;;;;;24.42;44.32;94743.13;4982638;28;20037;-63
2022/09/15 08:02:21;;;;;;;6.88;3.72;;;;;;;24.23;44.23;94719.84;4979553;28;20042;-67
2022/09/15 08:04:46;;;;;;;4.90;3.10;;;;;;;24.78;44.05;94790.63;4981874;28;20213;-66
2022/09/15 08:07:12;;;;;;;5.80;3.25;;;;;;;24.89;44.26;94794.66;4976747;28;20515;-64
2022/09/15 08:09:38;;;;;;;6.30;3.33;;;;;;;24.63;43.76;94768.56;4982735;28;20049;-64
2022/09/15 08:12:04;;;;;;;7.22;3.92;;;;;;;24.90;43.88;94798.88;4964241;28;20388;-64
2022/09/15 08:14:32;;;;;;;5.32;3.45;;;;;;;24.72;43.80;94770.88;4981606;28;20038;-64
2022/09/15 08:17:00;;;;;;;5.90;3.47;;;;;;;24.71;44.05;94769.41;4981187;28;20081;-65
2022/09/15 08:19:28;;;;;;;8.18;3.83;;;;;;;24.53;44.24;94732.03;4981180;28;20117;-65
2022/09/15 08:21:54;;;;;;;7.95;4.00;;;;;;;24.61;43.92;94749.25;4980170;28;20022;-64
2022/09/15 08:24:21;;;;;;;5.82;3.50;;;;;;;24.84;44.18;94781.84;4982823;28;20026;-67
2022/09/15 08:26:47;;;;;;;6.47;3.58;;;;;;;24.92;43.98;94784.69;4980991;28;20054;-63
2022/09/15 08:29:12;;;;;;;6.13;3.25;;;;;;;24.44;44.14;94714.06;4981279;28;20057;-62
2022/09/15 08:31:57;;;;;;;6.47;4.07;;;;;;;24.52;43.97;94714.16;4985045;28;20030;-64
2022/09/15 08:34:38;;;;;;;6.30;3.47;;;;;;;24.73;44.14;94742.31;4987138;28;20049;-63
2022/09/15 08:37:05;;;;;;;6.97;3.63;;;;;;;24.84;44.46;94768.19;4984341;28;20032;-63
2022/09/15 08:39:30;;;;;;;6.22;3.22;;;;;;;24.88;44.33;94768.59;4983246;28;20014;-64
2022/09/15 08:41:56;;;;;;;7.53;3.58;;;;;;;24.36;44.55;94690.63;4979655;28;20474;-69
2022/09/15 08:44:45;;;;;;;4.88;3.50;;;;;;;24.43;44.58;94698.19;4981240;28;20523;-64
2022/09/15 08:47:23;;;;;;;6.20;3.90;;;;;;;24.88;44.41;94763.13;4969989;28;20046;-64
2022/09/15 08:50:09;;;;;;;5.85;3.72;;;;;;;24.61;44.87;94760.16;5001348;28;20128;-62
2022/09/15 08:52:39;;;;;;;5.38;3.58;;;;;;;24.08;44.56;94679.44;4987359;28;20115;-59
2022/09/15 08:55:19;;;;;;;7.05;3.40;;;;;;;24.80;43.71;94747.16;4977435;28;20057;-62
2022/09/15 08:57:45;;;;;;;8.68;3.85;;;;;;;24.12;44.18;94654.56;5007351;28;20018;-63
2022/09/15 09:00:15;;;;;;;6.20;3.65;;;;;;;24.36;44.43;94685.91;4975757;28;20832;-62
2022/09/15 09:03:00;;;;;;;;;;;;;;;24.77;44.09;94734.53;4967931;28;20031;-60
2022/09/15 09:05:47;;;;;;;6.78;3.97;;;;;;;24.81;44.74;94740.44;4985038;28;19957;-64
2022/09/15 09:08:23;;;;;;;7.00;3.40;;;;;;;25.06;44.39;94734.97;4981687;28;20038;-61
2022/09/15 09:11:20;;;;;;;7.05;3.72;;;;;;;24.63;43.89;94670.25;4980890;28;20045;-63
2022/09/15 09:14:14;;;;;;;8.43;3.90;;;;;;;25.30;44.10;94726.53;4983774;28;20046;-62
2022/09/15 09:16:52;;;;;;;8.13;3.85;;;;;;;25.33;42.94;94725.50;4949950;28;20054;-60
2022/09/15 09:19:36;;;;;;;8.93;3.88;;;;;;;25.40;42.93;94730.31;4992840;28;20046;-61
2022/09/15 09:22:09;;;;;;;6.32;3.50;;;;;;;25.28;42.60;94690.81;4972061;28;20020;-61
2022/09/15 09:24:46;;;;;;;7.55;3.53;;;;;;;25.54;42.47;94715.34;4970742;28;20041;-59
2022/09/15 09:27:19;;;;;;;9.13;3.22;;;;;;;24.96;42.02;94611.00;4983710;28;21347;-61
2022/09/15 09:29:50;;;;;;;7.28;3.30;;;;;;;25.59;42.05;94671.47;4996523;28;20038;-61
2022/09/15 09:32:25;;;;;;;9.32;3.38;;;;;;;25.80;41.94;94681.19;4984337;28;20057;-62
2022/09/15 09:34:56;;;;;;;6.60;3.65;;;;;;;25.77;42.75;94706.16;4975433;28;20129;-63
2022/09/15 09:37:23;;;;;;;6.63;3.63;;;;;;;25.91;42.08;94686.41;4997905;28;20057;-60
2022/09/15 09:39:49;;;;;;;7.80;3.90;;;;;;;26.15;41.59;94682.59;4984166;28;20038;-58
2022/09/15 09:42:17;;;;;;;6.53;3.40;;;;;;;25.56;42.04;94622.56;4979319;28;20042;-60
2022/09/15 09:44:43;;;;;;;7.97;3.60;;;;;;;25.98;41.45;94685.75;4995330;28;20037;-64
2022/09/15 09:47:09;;;;;;;9.65;3.33;;;;;;;25.89;41.35;94634.22;4983723;28;20049;-61
2022/09/15 09:49:37;;;;;;;8.60;3.60;;;;;;;25.92;41.08;94616.72;4997709;28;20557;-62
2022/09/15 09:52:03;;;;;;;9.05;3.67;;;;;;;26.13;41.03;94636.59;4962122;28;20045;-62
2022/09/15 09:54:30;;;;;;;7.38;3.20;;;;;;;26.37;40.58;94660.91;4981444;28;20105;-62
2022/09/15 09:57:29;;;;;;;5.50;3.22;;;;;;;26.72;40.30;94695.81;4980724;28;20034;-67
2022/09/15 09:59:55;;;;;;;6.68;3.45;;;;;;;26.75;40.44;94700.22;4969974;28;20631;-61
2022/09/15 10:02:24;;;;;;;5.30;3.13;;;;;;;26.31;40.43;94613.75;4981372;28;20125;-65
2022/09/15 10:05:02;;;;;;;;;;;;;;;26.98;39.83;94702.59;4977669;28;20050;-67
2022/09/15 10:07:27;;;;;;;10.05;3.15;;;;;;;26.49;39.93;94624.47;4984702;28;20419;-61
2022/09/15 10:09:55;;;;;;;5.72;3.05;;;;;;;26.43;39.75;94593.03;4958794;28;20030;-64
2022/09/15 10:12:38;;;;;;;9.15;3.10;;;;;;;27.06;40.01;94670.44;4995805;28;20111;-65
2022/09/15 10:15:05;;;;;;;8.00;3.67;;;;;;;27.22;39.41;94687.69;4972016;28;20042;-62
2022/09/15 10:17:38;;;;;;;6.35;3.05;;;;;;;27.18;40.07;94676.38;4963894;28;20077;-60
2022/09/15 10:20:05;;;;;;;6.07;2.90;;;;;;;27.02;39.63;94645.38;4992632;28;20070;-60
2022/09/15 10:22:30;;;;;;;7.10;3.33;;;;;;;27.40;39.22;94684.69;4986732;28;20054;-64
2022/09/15 10:24:57;;;;;;;6.57;3.15;;;;;;;27.54;39.15;94681.25;4980692;28;20038;-63
2022/09/15 10:27:33;;;;;;;5.82;3.53;;;;;;;27.49;39.70;94678.66;4981346;28;20038;-67
2022/09/15 10:30:11;;;;;;;7.90;3.33;;;;;;;27.51;39.26;94673.38;4995312;28;20137;-67
2022/09/15 10:32:37;;;;;;;6.50;3.20;;;;;;;27.48;38.59;94645.00;4978245;28;20057;-62
2022/09/15 10:35:10;;;;;;;8.48;3.03;;;;;;;27.63;38.69;94633.38;4980456;28;20050;-63
2022/09/15 10:38:01;;;;;;;7.30;3.00;;;;;;;27.46;39.42;94655.06;4978258;28;20535;-61
2022/09/15 10:40:49;;;;;;;4.93;3.10;;;;;;;27.27;38.90;94586.09;4959057;28;20085;-61
2022/09/15 10:43:21;;;;;;;6.53;3.25;;;;;;;27.49;39.45;94646.47;4979957;28;20038;-61
2022/09/15 10:45:48;;;;;;;5.95;3.17;;;;;;;27.34;38.74;94613.53;4957514;28;20030;-60
2022/09/15 10:48:47;;;;;;;6.00;2.83;;;;;;;27.54;38.96;94664.06;4979428;28;20057;-60
2022/09/15 10:51:37;;;;;;;7.88;3.30;;;;;;;27.36;39.21;94654.13;4981313;28;20039;-61
2022/09/15 10:54:25;;;;;;;6.47;2.60;;;;;;;27.15;39.52;94617.13;4982151;28;20066;-61
2022/09/15 10:57:00;;;;;;;6.35;2.75;;;;;;;27.24;39.51;94630.31;4973184;28;20078;-61
2022/09/15 11:00:01;;;;;;;6.88;2.90;;;;;;;27.30;39.57;94634.34;4947789;28;20038;-61
2022/09/15 11:02:40;;;;;;;6.75;2.97;;;;;;;27.19;39.65;94637.44;4920121;29;20062;-61
2022/09/15 11:05:21;;;;;;;7.70;3.10;;;;;;;27.06;39.86;94637.56;4984365;28;20042;-60
2022/09/15 11:08:08;;;;;;;7.20;2.60;;;;;;;27.07;40.16;94628.06;4980561;28;20857;-61
2022/09/15 11:10:41;;;;;;;5.68;3.00;;;;;;;27.03;40.46;94627.69;4983205;28;20439;-61
2022/09/15 11:13:24;;;;;;;4.63;2.80;;;;;;;26.89;40.33;94606.41;4964804;28;20055;-61
2022/09/15 11:16:18;;;;;;;5.55;2.75;;;;;;;26.96;40.51;94622.88;4965611;28;20051;-62
2022/09/15 11:19:20;;;;;;;5.65;2.60;;;;;;;26.85;40.36;94609.47;4982707;28;20062;-61
2022/09/15 11:21:51;;;;;;;5.50;2.85;;;;;;;26.79;40.49;94611.66;4925099;28;20039;-61
2022/09/15 11:24:28;;;;;;;5.65;2.60;;;;;;;26.82;40.31;94613.31;4990141;28;20034;-62
2022/09/15 11:27:02;;;;;;;5.45;2.83;;;;;;;26.77;40.61;94605.97;4986591;28;20157;-62
2022/09/15 11:29:58;;;;;;;8.43;2.95;;;;;;;26.22;41.00;94543.06;4967535;28;20097;-62
2022/09/15 11:32:26;;;;;;;5.97;2.92;;;;;;;26.51;41.02;94571.88;4977600;28;20077;-59
2022/09/15 11:35:17;;;;;;;5.32;2.83;;;;;;;26.73;40.95;94604.16;4971662;28;20205;-65
2022/09/15 11:37:44;;;;;;;6.15;3.10;;;;;;;26.12;40.93;94513.97;4987078;28;20050;-62
2022/09/15 11:40:20;;;;;;;5.45;2.53;;;;;;;26.64;41.06;94601.91;4985235;28;20046;-62
2022/09/15 11:43:15;;;;;;;8.02;2.70;;;;;;;26.41;40.71;94562.69;4978267;28;20025;-62
2022/09/15 11:45:47;;;;;;;5.13;2.70;;;;;;;26.12;40.93;94514.69;4975153;28;20050;-62
2022/09/15 11:48:16;;;;;;;6.40;2.30;;;;;;;26.69;40.37;94593.50;4963093;28;20046;-62
2022/09/15 11:50:44;;;;;;;5.72;2.45;;;;;;;26.43;40.65;94552.69;4957440;28;20164;-63